Time;durP1;ratioP1;P1;durP2;ratioP2;P2;SDS_P1;SDS_P2;PMS_P1;PMS_P2;Temp;Humidity;BMP_temperature;BMP_pressure;BME280_temperature;BME280_humidity;BME280_pressure;Samples;Min_cycle;Max_cycle;Signal;HPM_P1;HPM_P2
2021/11/19 00:00:31;;;;;;;63.83;21.80;;;;;;;0.30;91.72;101088.98;1711830;82;21056;-43
2021/11/19 00:02:58;;;;;;;65.42;21.15;;;;;;;0.32;91.63;101082.27;1722197;83;23245;-43
2021/11/19 00:05:25;;;;;;;88.70;20.90;;;;;;;0.33;91.52;101073.81;1739027;82;21012;-43
2021/11/19 00:07:52;;;;;;;108.22;23.32;;;;;;;0.34;91.49;101075.14;1723117;83;21049;-43
2021/11/19 00:10:18;;;;;;;106.87;23.00;;;;;;;0.35;91.50;101073.05;1739287;82;20953;-43
2021/11/19 00:12:44;;;;;;;54.08;21.25;;;;;;;0.37;91.34;101067.99;1723166;83;21137;-43
2021/11/19 00:15:11;;;;;;;142.03;24.70;;;;;;;0.38;91.09;101060.81;1738998;82;21490;-43
2021/11/19 00:17:39;;;;;;;163.70;26.55;;;;;;;0.39;90.94;101057.05;1723127;83;20959;-43
2021/11/19 00:20:10;;;;;;;245.45;29.40;;;;;;;0.41;90.70;101061.78;1738973;82;20937;-43
2021/11/19 00:22:36;;;;;;;169.32;25.37;;;;;;;0.42;90.54;101065.22;1723103;83;20963;-43
2021/11/19 00:25:04;;;;;;;133.45;25.82;;;;;;;0.43;90.43;101070.77;1739248;82;21134;-43
2021/11/19 00:27:32;;;;;;;64.70;22.87;;;;;;;0.42;90.19;101062.67;1695136;83;20987;-43
2021/11/19 00:29:59;;;;;;;94.52;22.52;;;;;;;0.41;90.05;101043.11;1739119;82;20952;-43
2021/11/19 00:32:26;;;;;;;142.53;25.37;;;;;;;0.41;89.66;101035.47;1723170;83;20944;-43
2021/11/19 00:37:34;;;;;;;72.55;23.07;;;;;;;0.47;89.57;101036.92;1797716;79;22662;-41
2021/11/19 00:40:05;;;;;;;306.93;33.08;;;;;;;0.43;89.55;101051.66;1757340;81;21477;-42
2021/11/19 00:42:32;;;;;;;95.70;24.30;;;;;;;0.44;89.56;101047.02;1757380;81;21143;-43
2021/11/19 00:45:00;;;;;;;138.50;26.12;;;;;;;0.45;89.49;101044.05;1757580;81;21542;-43
2021/11/19 00:47:26;;;;;;;91.02;22.82;;;;;;;0.45;89.50;101042.39;1757433;81;22196;-43
2021/11/19 00:49:55;;;;;;;130.75;24.85;;;;;;;0.45;89.50;101035.13;1757377;81;20937;-42
2021/11/19 00:52:23;;;;;;;80.10;23.50;;;;;;;0.45;89.52;101041.50;1757524;81;21525;-43
2021/11/19 00:54:50;;;;;;;147.70;26.97;;;;;;;0.45;89.39;101037.68;1757342;81;21149;-43
2021/11/19 00:57:18;;;;;;;116.85;25.48;;;;;;;0.46;89.27;101041.56;1757312;81;20992;-42
2021/11/19 00:59:45;;;;;;;152.20;28.25;;;;;;;0.48;89.07;101049.24;1757463;80;21012;-43
2021/11/19 01:02:19;;;;;;;123.02;24.45;;;;;;;0.47;88.99;101040.75;1757492;81;21565;-43
2021/11/19 01:04:45;;;;;;;70.67;25.85;;;;;;;0.47;88.93;101041.14;1757512;81;20917;-43
2021/11/19 01:07:16;;;;;;;69.65;23.95;;;;;;;0.47;89.04;101052.61;1757223;81;21771;-43
2021/11/19 01:09:47;;;;;;;124.70;26.45;;;;;;;0.45;89.00;101047.48;1757239;81;20979;-43
2021/11/19 01:12:20;;;;;;;139.52;26.80;;;;;;;0.43;89.12;101042.32;1757476;81;20980;-43
2021/11/19 01:14:55;;;;;;;109.80;26.12;;;;;;;0.42;89.26;101042.29;1757484;81;20913;-42
2021/11/19 01:17:27;;;;;;;49.93;22.80;;;;;;;0.39;89.36;101034.55;1755112;81;20933;-43
2021/11/19 01:20:11;;;;;;;112.57;24.87;;;;;;;0.38;89.47;101036.61;1748072;80;21207;-43
2021/11/19 01:22:40;;;;;;;211.43;30.32;;;;;;;0.37;89.64;101041.25;1749120;82;21524;-43
2021/11/19 01:25:09;;;;;;;118.90;25.65;;;;;;;0.36;89.88;101035.30;1719565;82;21003;-43
2021/11/19 01:27:37;;;;;;;280.07;34.38;;;;;;;0.36;89.96;101035.70;1695949;82;21533;-43
2021/11/19 01:30:14;;;;;;;82.95;24.70;;;;;;;0.34;89.99;101033.12;1749056;82;20979;-43
2021/11/19 01:32:40;;;;;;;131.12;27.52;;;;;;;0.35;89.87;101040.33;1749195;82;21065;-43
2021/11/19 01:35:12;;;;;;;317.73;36.70;;;;;;;0.34;90.08;101043.30;1714757;83;20955;-43
2021/11/19 01:37:49;;;;;;;110.63;28.47;;;;;;;0.33;90.32;101040.69;1662975;83;20978;-42
2021/11/19 01:40:22;;;;;;;87.05;29.32;;;;;;;0.31;90.52;101035.95;1692379;84;21094;-42
2021/11/19 01:42:54;;;;;;;98.72;28.60;;;;;;;0.28;90.67;101031.65;1689620;84;20908;-43
2021/11/19 01:45:31;;;;;;;106.60;28.80;;;;;;;0.27;90.77;101026.09;1720698;83;21153;-43
2021/11/19 01:47:58;;;;;;;96.05;28.70;;;;;;;0.26;90.87;101021.40;1686793;85;21025;-43
2021/11/19 01:50:33;;;;;;;102.27;29.48;;;;;;;0.26;91.05;101021.40;1702588;84;21484;-43
2021/11/19 01:53:14;;;;;;;81.10;27.40;;;;;;;0.24;91.24;101009.02;1676556;83;21093;-43
2021/11/19 01:55:59;;;;;;;74.90;26.60;;;;;;;0.20;91.42;100999.95;1720905;82;21054;-42
2021/11/19 01:58:40;;;;;;;107.52;29.67;;;;;;;0.17;91.71;101004.95;1685793;85;21096;-43
2021/11/19 02:01:20;;;;;;;121.87;29.12;;;;;;;0.13;92.17;101012.48;1686627;83;21037;-43
2021/11/19 02:03:53;;;;;;;122.87;30.48;;;;;;;0.07;92.59;101002.11;1686588;83;21500;-43
2021/11/19 02:06:25;;;;;;;87.53;28.27;;;;;;;0.06;92.96;100996.95;1686911;85;21049;-43
2021/11/19 02:08:54;;;;;;;57.58;27.82;;;;;;;0.03;93.17;100998.12;1686201;85;22285;-43
2021/11/19 02:11:57;;;;;;;69.72;27.02;;;;;;;0.03;93.67;100996.84;1702586;84;21830;-43
2021/11/19 02:14:45;;;;;;;226.10;32.00;;;;;;;-0.01;93.93;100996.75;1720899;82;20998;-43
2021/11/19 02:17:12;;;;;;;75.62;30.15;;;;;;;-0.02;94.24;100996.69;1682565;84;21035;-43
2021/11/19 02:19:48;;;;;;;105.58;29.92;;;;;;;-0.03;94.68;100997.11;1709197;84;21027;-43
2021/11/19 02:22:19;;;;;;;159.67;30.57;;;;;;;-0.02;94.97;100996.30;1709342;82;21491;-43
2021/11/19 02:24:51;;;;;;;83.52;28.00;;;;;;;-0.02;95.29;100988.66;1709141;84;21145;-43
2021/11/19 02:27:32;;;;;;;109.03;30.17;;;;;;;0.00;95.47;100991.27;1708360;84;21012;-43
2021/11/19 02:30:10;;;;;;;109.27;30.05;;;;;;;0.01;95.67;100992.12;1709163;84;21058;-42
2021/11/19 02:32:44;;;;;;;119.15;32.42;;;;;;;0.02;95.94;100998.94;1708140;84;20992;-43
2021/11/19 02:35:16;;;;;;;108.15;30.17;;;;;;;0.03;96.38;100999.00;1666126;84;21002;-43
2021/11/19 02:37:46;;;;;;;78.42;29.30;;;;;;;0.02;96.64;101002.36;1674967;84;21852;-43
2021/11/19 02:40:20;;;;;;;99.52;29.95;;;;;;;0.03;96.82;100995.19;1695029;84;21719;-42
2021/11/19 02:42:52;;;;;;;86.30;31.37;;;;;;;0.03;97.04;101001.94;1695344;84;20976;-43
2021/11/19 02:45:23;;;;;;;88.95;30.50;;;;;;;0.03;97.10;101001.94;1694606;84;20996;-43
2021/11/19 02:47:52;;;;;;;166.37;35.17;;;;;;;0.03;97.25;100999.39;1694909;84;21043;-43
2021/11/19 02:50:20;;;;;;;87.17;30.92;;;;;;;0.03;97.47;100990.48;1700093;84;21143;-43
2021/11/19 02:52:48;;;;;;;71.70;29.48;;;;;;;0.05;97.56;100995.22;1695161;84;21576;-43
2021/11/19 02:55:23;;;;;;;59.23;28.65;;;;;;;0.07;97.63;100991.04;1695403;84;21054;-43
2021/11/19 02:57:52;;;;;;;82.37;31.42;;;;;;;0.06;97.72;100994.41;1695192;84;20995;-42
2021/11/19 03:00:24;;;;;;;68.40;30.70;;;;;;;0.07;97.82;100985.95;1695098;83;20959;-42
2021/11/19 03:02:51;;;;;;;73.57;32.78;;;;;;;0.07;97.84;100993.19;1695249;84;21106;-43
2021/11/19 03:05:21;;;;;;;63.05;29.77;;;;;;;0.10;97.92;100987.32;1695126;84;21008;-42
2021/11/19 03:07:47;;;;;;;61.15;31.07;;;;;;;0.10;97.98;100978.41;1665628;84;21039;-43
2021/11/19 03:10:38;;;;;;;63.20;31.00;;;;;;;0.12;97.98;100985.69;1695290;84;21560;-42
2021/11/19 03:13:06;;;;;;;83.10;32.33;;;;;;;0.12;98.04;100972.56;1694437;83;21098;-43
2021/11/19 03:15:39;;;;;;;221.85;39.65;;;;;;;0.14;98.06;100982.39;1695268;84;21098;-43
2021/11/19 03:18:06;;;;;;;161.03;35.92;;;;;;;0.17;98.12;100976.94;1695329;84;20972;-43
2021/11/19 03:20:33;;;;;;;294.15;44.13;;;;;;;0.19;98.17;100974.03;1695219;83;20933;-43
2021/11/19 03:23:01;;;;;;;160.55;37.75;;;;;;;0.23;98.18;100978.40;1695187;84;21007;-43
2021/11/19 03:25:32;;;;;;;118.08;37.55;;;;;;;0.25;98.31;100971.28;1695197;84;21054;-43
2021/11/19 03:28:00;;;;;;;187.60;37.73;;;;;;;0.27;98.41;100964.97;1695208;83;21087;-43
2021/11/19 03:30:29;;;;;;;237.30;43.15;;;;;;;0.30;98.44;100969.28;1695170;84;20956;-43
2021/11/19 03:32:55;;;;;;;150.65;35.65;;;;;;;0.32;98.43;100959.61;1695192;84;21039;-43
2021/11/19 03:35:23;;;;;;;224.52;43.55;;;;;;;0.35;98.52;100970.28;1695330;84;21007;-43
2021/11/19 03:37:51;;;;;;;386.02;46.33;;;;;;;0.38;98.61;100960.19;1695275;84;21018;-43
2021/11/19 03:40:22;;;;;;;210.85;40.38;;;;;;;0.39;98.65;100960.25;1695428;84;21140;-43
2021/11/19 03:42:50;;;;;;;125.90;34.03;;;;;;;0.41;98.70;100953.52;1695160;84;20948;-43
2021/11/19 03:45:21;;;;;;;175.18;41.50;;;;;;;0.43;98.84;100951.03;1695216;84;20964;-43
2021/11/19 03:47:50;;;;;;;435.55;46.40;;;;;;;0.45;98.90;100949.40;1695123;83;20972;-43
2021/11/19 03:50:27;;;;;;;174.20;37.65;;;;;;;0.46;99.05;100951.13;1695356;84;21003;-43
2021/11/19 03:52:55;;;;;;;170.20;39.25;;;;;;;0.47;99.16;100946.88;1695171;83;21205;-43
2021/11/19 03:55:30;;;;;;;156.32;37.60;;;;;;;0.47;99.26;100937.57;1695171;84;20940;-43
2021/11/19 03:57:56;;;;;;;324.03;47.30;;;;;;;0.51;99.26;100939.81;1695431;83;20969;-43
2021/11/19 04:00:28;;;;;;;283.73;47.83;;;;;;;0.51;99.34;100938.54;1695250;84;21266;-43
2021/11/19 04:02:58;;;;;;;539.92;56.95;;;;;;;0.51;99.45;100939.81;1665621;84;21529;-43
2021/11/19 04:05:26;;;;;;;225.32;44.90;;;;;;;0.52;99.54;100942.39;1695199;84;21165;-43
2021/11/19 04:07:52;;;;;;;227.82;39.95;;;;;;;0.56;99.67;100934.02;1695055;84;20999;-43
2021/11/19 04:10:21;;;;;;;247.48;42.90;;;;;;;0.55;99.81;100937.38;1699884;84;20972;-43
2021/11/19 04:12:49;;;;;;;152.43;38.65;;;;;;;0.56;99.91;100935.29;1695228;84;21007;-43
2021/11/19 04:15:23;;;;;;;171.95;40.83;;;;;;;0.60;100.00;100940.48;1695505;84;21019;-43
2021/11/19 04:17:50;;;;;;;169.70;41.40;;;;;;;0.60;100.00;100946.84;1695474;84;21792;-43
2021/11/19 04:20:17;;;;;;;189.97;42.23;;;;;;;0.60;100.00;100941.75;1695215;84;20944;-43
2021/11/19 04:22:44;;;;;;;160.65;42.58;;;;;;;0.60;100.00;100940.48;1695170;84;20965;-43
2021/11/19 04:25:14;;;;;;;194.70;43.87;;;;;;;0.61;100.00;100942.20;1695284;84;21024;-43
2021/11/19 04:27:41;;;;;;;289.10;48.83;;;;;;;0.61;100.00;100935.44;1695184;84;21078;-43
2021/11/19 04:30:15;;;;;;;625.60;66.47;;;;;;;0.61;100.00;100931.61;1694823;84;21151;-43
2021/11/19 04:32:43;;;;;;;217.05;48.17;;;;;;;0.63;100.00;100931.25;1694942;84;21011;-43
2021/11/19 04:35:10;;;;;;;472.82;61.20;;;;;;;0.64;100.00;100928.31;1695295;84;21068;-43
2021/11/19 04:37:37;;;;;;;137.85;43.60;;;;;;;0.63;100.00;100924.87;1698213;83;21116;-43
2021/11/19 04:40:07;;;;;;;269.68;47.85;;;;;;;0.65;100.00;100919.84;1709634;84;21019;-43
2021/11/19 04:42:34;;;;;;;167.18;43.68;;;;;;;0.65;100.00;100926.21;1700760;84;21198;-43
2021/11/19 04:45:02;;;;;;;135.78;42.10;;;;;;;0.65;100.00;100924.94;1684982;85;20995;-43
2021/11/19 04:47:30;;;;;;;94.58;39.90;;;;;;;0.62;100.00;100918.06;1710315;84;20995;-44
2021/11/19 04:49:56;;;;;;;130.52;40.70;;;;;;;0.62;100.00;100914.63;1700645;84;21000;-43
2021/11/19 04:52:25;;;;;;;130.27;41.33;;;;;;;0.63;100.00;100924.87;1710427;83;20947;-43
2021/11/19 04:54:51;;;;;;;125.87;42.62;;;;;;;0.65;100.00;100912.20;1666935;84;21103;-43
2021/11/19 04:57:18;;;;;;;128.20;41.77;;;;;;;0.65;100.00;100913.05;1666791;85;20978;-43
2021/11/19 04:59:44;;;;;;;94.85;39.18;;;;;;;0.67;100.00;100915.66;1666946;85;21093;-43
2021/11/19 05:02:14;;;;;;;95.35;40.92;;;;;;;0.68;100.00;100911.02;1667014;86;21576;-43
2021/11/19 05:04:54;;;;;;;101.78;41.75;;;;;;;0.69;100.00;100912.31;1665918;85;21005;-44
2021/11/19 05:07:22;;;;;;;102.97;40.65;;;;;;;0.71;100.00;100917.05;1697824;84;22287;-43
2021/11/19 05:09:50;;;;;;;121.95;39.78;;;;;;;0.74;100.00;100916.67;1710151;82;20931;-43
2021/11/19 05:12:27;;;;;;;183.50;46.42;;;;;;;0.76;100.00;100916.31;1710311;84;20928;-43
2021/11/19 05:14:54;;;;;;;141.28;42.38;;;;;;;0.76;100.00;100919.73;1700901;84;20959;-43
2021/11/19 05:17:23;;;;;;;140.52;43.90;;;;;;;0.78;100.00;100913.00;1710265;83;21094;-43
2021/11/19 05:19:51;;;;;;;169.00;45.95;;;;;;;0.80;100.00;100917.73;1667029;85;21176;-43
2021/11/19 05:22:18;;;;;;;142.25;45.73;;;;;;;0.84;100.00;100916.98;1666957;86;20967;-43
2021/11/19 05:24:45;;;;;;;124.55;43.98;;;;;;;0.89;100.00;100915.01;1697870;84;20965;-43
2021/11/19 05:27:12;;;;;;;149.23;47.05;;;;;;;0.92;100.00;100918.48;1697934;84;21497;-43
2021/11/19 05:29:39;;;;;;;133.57;46.25;;;;;;;0.94;100.00;100916.00;1697852;84;20924;-43
2021/11/19 05:32:07;;;;;;;143.90;46.73;;;;;;;0.95;100.00;100912.20;1710307;83;21140;-43
2021/11/19 05:34:33;;;;;;;157.27;48.98;;;;;;;0.97;100.00;100920.75;1710402;83;21135;-43
2021/11/19 05:37:00;;;;;;;117.62;46.88;;;;;;;0.99;100.00;100922.09;1703044;83;21160;-43
2021/11/19 05:39:28;;;;;;;111.50;44.42;;;;;;;1.00;100.00;100917.44;1716376;83;20989;-43
2021/11/19 05:41:54;;;;;;;114.62;47.58;;;;;;;1.01;100.00;100916.62;1716465;83;21626;-43
2021/11/19 05:44:22;;;;;;;111.03;44.50;;;;;;;1.03;100.00;100920.08;1716380;83;21158;-43
2021/11/19 05:46:59;;;;;;;127.15;47.53;;;;;;;1.05;100.00;100918.86;1713714;83;21036;-43
2021/11/19 05:49:26;;;;;;;116.47;45.80;;;;;;;1.04;100.00;100923.50;1716384;83;20993;-44
2021/11/19 05:51:57;;;;;;;132.72;48.75;;;;;;;1.04;100.00;100926.90;1720975;82;20995;-44
2021/11/19 05:54:26;;;;;;;131.57;48.98;;;;;;;1.04;100.00;100926.90;1721053;82;20935;-42
2021/11/19 05:56:54;;;;;;;128.50;46.88;;;;;;;1.05;100.00;100927.35;1686640;85;21172;-43
2021/11/19 05:59:20;;;;;;;129.35;47.45;;;;;;;1.05;100.00;100927.78;1686654;84;20931;-42
2021/11/19 06:01:51;;;;;;;125.15;47.23;;;;;;;1.07;100.00;100919.33;1607751;85;21034;-43
2021/11/19 06:04:19;;;;;;;128.60;48.87;;;;;;;1.09;100.00;100916.84;1660806;85;21010;-43
2021/11/19 06:06:47;;;;;;;124.35;46.85;;;;;;;1.11;100.00;100920.30;1684669;85;21049;-43
2021/11/19 06:09:28;;;;;;;135.82;49.93;;;;;;;1.11;100.00;100913.48;1686039;85;21559;-44
2021/11/19 06:11:53;;;;;;;117.53;45.80;;;;;;;1.13;100.00;100914.39;1660018;85;21050;-44
2021/11/19 06:14:32;;;;;;;131.37;49.67;;;;;;;1.16;100.00;100915.33;1686468;83;20981;-44
2021/11/19 06:17:06;;;;;;;129.90;48.08;;;;;;;1.20;100.00;100910.33;1686021;85;20954;-44
2021/11/19 06:19:38;;;;;;;119.15;44.33;;;;;;;1.19;100.00;100923.91;1686488;85;20970;-44
2021/11/19 06:22:13;;;;;;;139.40;49.10;;;;;;;1.20;100.00;100915.86;1685740;85;21175;-44
2021/11/19 06:24:42;;;;;;;140.97;49.63;;;;;;;1.19;100.00;100905.20;1686041;85;21022;-44
2021/11/19 06:27:11;;;;;;;127.55;45.40;;;;;;;1.21;100.00;100915.88;1686619;85;21033;-44
2021/11/19 06:29:39;;;;;;;131.82;48.42;;;;;;;1.19;100.00;100912.86;1686543;83;21538;-44
2021/11/19 06:32:07;;;;;;;131.75;49.15;;;;;;;1.16;100.00;100905.13;1686524;85;20946;-44
2021/11/19 06:34:36;;;;;;;120.97;46.85;;;;;;;1.18;100.00;100895.83;1661370;85;21930;-43
2021/11/19 06:37:04;;;;;;;125.25;46.40;;;;;;;1.20;100.00;100901.84;1659678;85;20935;-44
2021/11/19 06:39:32;;;;;;;132.35;48.45;;;;;;;1.23;100.00;100901.91;1712383;82;21020;-43
2021/11/19 06:42:01;;;;;;;141.82;48.95;;;;;;;1.23;100.00;100890.44;1714095;82;21510;-43
2021/11/19 06:44:36;;;;;;;144.75;49.67;;;;;;;1.25;100.00;100888.79;1738755;82;20952;-44
2021/11/19 06:47:05;;;;;;;147.35;47.05;;;;;;;1.27;100.00;100893.52;1719394;82;21156;-44
2021/11/19 06:49:35;;;;;;;120.70;44.50;;;;;;;1.29;100.00;100894.02;1743399;82;20929;-44
2021/11/19 06:52:21;;;;;;;130.32;47.40;;;;;;;1.31;100.00;100891.92;1740686;82;20940;-43
2021/11/19 06:55:08;;;;;;;127.75;47.10;;;;;;;1.30;100.00;100892.31;1743280;82;20920;-43
2021/11/19 06:57:44;;;;;;;117.75;46.28;;;;;;;1.30;100.00;100891.05;1724499;82;20988;-43
2021/11/19 07:00:18;;;;;;;116.45;45.52;;;;;;;1.32;100.00;100893.65;1743251;82;21821;-43
2021/11/19 07:02:46;;;;;;;126.12;44.67;;;;;;;1.34;100.00;100894.13;1743253;82;20968;-43
2021/11/19 07:05:12;;;;;;;121.35;45.52;;;;;;;1.36;100.00;100893.75;1743358;82;21462;-43
2021/11/19 07:07:40;;;;;;;108.37;44.70;;;;;;;1.39;100.00;100890.03;1743496;82;21537;-43
2021/11/19 07:10:08;;;;;;;114.70;44.90;;;;;;;1.40;100.00;100892.16;1743383;81;20945;-44
2021/11/19 07:12:35;;;;;;;106.52;41.40;;;;;;;1.43;100.00;100896.06;1743320;81;21121;-44
2021/11/19 07:15:06;;;;;;;112.85;41.58;;;;;;;1.46;100.00;100891.45;1743362;82;20897;-44
2021/11/19 07:17:34;;;;;;;100.97;39.98;;;;;;;1.49;100.00;100889.83;1743159;81;21501;-44
2021/11/19 07:20:01;;;;;;;110.75;41.28;;;;;;;1.50;100.00;100894.11;1743266;81;21007;-44
2021/11/19 07:22:28;;;;;;;104.27;40.38;;;;;;;1.49;100.00;100883.88;1714022;82;20992;-44
2021/11/19 07:24:57;;;;;;;99.87;39.25;;;;;;;1.50;100.00;100876.25;1742340;82;21162;-43
2021/11/19 07:27:23;;;;;;;108.15;41.15;;;;;;;1.55;100.00;100875.09;1714084;82;21019;-44
2021/11/19 07:29:51;;;;;;;95.55;38.63;;;;;;;1.58;100.00;100876.05;1743417;81;21526;-44
2021/11/19 07:32:32;;;;;;;93.27;38.53;;;;;;;1.61;100.00;100871.41;1717903;82;20932;-44
2021/11/19 07:35:04;;;;;;;104.17;39.38;;;;;;;1.66;100.00;100872.42;1738881;82;20987;-44
2021/11/19 07:37:40;;;;;;;103.35;39.15;;;;;;;1.70;100.00;100874.22;1738567;81;21095;-44
2021/11/19 07:40:17;;;;;;;106.47;39.90;;;;;;;1.72;100.00;100878.06;1679602;85;21059;-44
2021/11/19 07:43:02;;;;;;;97.88;40.25;;;;;;;1.72;100.00;100877.67;1680364;85;21020;-44
2021/11/19 07:45:38;;;;;;;115.42;37.65;;;;;;;1.74;100.00;100875.13;1700271;83;21534;-44
2021/11/19 07:48:23;;;;;;;86.40;35.75;;;;;;;1.76;100.00;100879.86;1671887;85;21019;-44
2021/11/19 07:50:51;;;;;;;126.35;37.20;;;;;;;1.80;100.00;100866.38;1700179;84;21161;-44
2021/11/19 07:53:18;;;;;;;84.97;36.30;;;;;;;1.87;100.00;100878.84;1645020;86;21002;-43
2021/11/19 07:55:46;;;;;;;92.45;33.55;;;;;;;1.90;100.00;100868.73;1714190;82;20968;-44
2021/11/19 07:58:13;;;;;;;83.55;33.28;;;;;;;1.97;100.00;100856.55;1713966;82;20984;-44
2021/11/19 08:00:41;;;;;;;80.97;34.85;;;;;;;2.06;100.00;100855.03;1735338;81;21605;-44
2021/11/19 08:03:08;;;;;;;80.97;34.58;;;;;;;2.11;100.00;100851.77;1714079;82;21035;-44
2021/11/19 08:05:35;;;;;;;95.05;34.23;;;;;;;2.17;100.00;100854.88;1735096;82;20921;-44
2021/11/19 08:08:21;;;;;;;72.40;31.45;;;;;;;2.23;100.00;100856.28;1734433;82;20996;-44
2021/11/19 08:11:04;;;;;;;82.45;29.90;;;;;;;2.32;100.00;100852.20;1734828;82;20928;-43
2021/11/19 08:13:31;;;;;;;72.53;29.32;;;;;;;2.35;100.00;100845.47;1735131;82;20976;-44
2021/11/19 08:15:58;;;;;;;69.53;30.02;;;;;;;2.37;100.00;100847.64;1735195;82;21450;-44
2021/11/19 08:18:31;;;;;;;83.37;32.78;;;;;;;2.38;100.00;100839.55;1680128;85;21975;-44
2021/11/19 08:21:01;;;;;;;79.82;31.80;;;;;;;2.36;100.00;100848.88;1660542;85;20992;-43
2021/11/19 08:23:36;;;;;;;64.10;29.95;;;;;;;2.39;100.00;100845.98;1680187;85;21112;-44
2021/11/19 08:26:08;;;;;;;88.42;31.77;;;;;;;2.39;100.00;100845.98;1680343;85;21053;-44
2021/11/19 08:28:35;;;;;;;92.72;32.38;;;;;;;2.38;100.00;100843.37;1680357;85;21099;-44
2021/11/19 08:31:05;;;;;;;69.25;29.45;;;;;;;2.17;100.00;100835.72;1680210;85;20964;-44
2021/11/19 08:33:32;;;;;;;70.65;30.90;;;;;;;2.17;100.00;100835.72;1680448;85;21640;-44
2021/11/19 08:35:59;;;;;;;61.80;25.48;;;;;;;2.18;100.00;100836.17;1660687;85;21005;-44
2021/11/19 08:38:26;;;;;;;74.95;28.42;;;;;;;2.14;100.00;100830.52;1687061;84;20935;-43
2021/11/19 08:40:53;;;;;;;73.37;28.38;;;;;;;2.07;100.00;100819.72;1720719;82;21186;-44
2021/11/19 08:43:28;;;;;;;64.27;28.87;;;;;;;2.00;100.00;100814.48;1686489;85;21595;-44
2021/11/19 08:45:56;;;;;;;84.62;30.92;;;;;;;2.01;100.00;100803.44;1701502;84;20963;-43
2021/11/19 08:48:25;;;;;;;121.17;33.67;;;;;;;2.00;100.00;100817.04;1702456;84;21011;-43
2021/11/19 08:50:52;;;;;;;96.92;31.33;;;;;;;1.97;100.00;100828.47;1676646;84;21572;-43
2021/11/19 08:53:19;;;;;;;101.42;32.00;;;;;;;1.97;100.00;100823.75;1702350;84;21065;-43
2021/11/19 08:55:49;;;;;;;107.12;31.77;;;;;;;1.95;100.00;100825.41;1702379;84;21043;-44
2021/11/19 08:58:25;;;;;;;91.08;31.02;;;;;;;1.93;100.00;100818.14;1702421;84;21628;-44
2021/11/19 09:00:54;;;;;;;106.60;31.55;;;;;;;1.94;100.00;100813.08;1702575;84;21042;-44
2021/11/19 09:03:20;;;;;;;102.95;31.10;;;;;;;1.92;100.00;100816.02;1677168;84;20936;-44
2021/11/19 09:05:49;;;;;;;83.92;31.50;;;;;;;1.92;100.00;100804.92;1676274;84;21050;-44
2021/11/19 09:08:18;;;;;;;75.78;29.65;;;;;;;1.90;100.00;100803.63;1721087;82;21549;-43
2021/11/19 09:10:45;;;;;;;82.97;29.92;;;;;;;1.90;100.00;100805.30;1660811;85;21053;-44
2021/11/19 09:13:12;;;;;;;62.10;28.25;;;;;;;1.84;100.00;100805.62;1686568;85;21078;-43
2021/11/19 09:15:40;;;;;;;60.28;28.30;;;;;;;1.85;100.00;100803.91;1686679;85;20994;-44
2021/11/19 09:18:21;;;;;;;72.15;27.60;;;;;;;1.85;100.00;100794.97;1686426;85;21044;-44
2021/11/19 09:21:26;;;;;;;87.50;30.27;;;;;;;1.86;100.00;100794.14;1702156;84;20999;-45
2021/11/19 09:23:59;;;;;;;72.25;29.95;;;;;;;1.90;100.00;100784.48;1702534;84;21505;-44
2021/11/19 09:26:48;;;;;;;64.25;28.75;;;;;;;1.88;100.00;100782.70;1702660;84;21509;-43
2021/11/19 09:29:33;;;;;;;74.03;26.87;;;;;;;1.88;100.00;100781.00;1676570;84;21030;-43
2021/11/19 09:31:59;;;;;;;68.80;28.02;;;;;;;1.91;100.00;100770.88;1690493;84;21115;-43
2021/11/19 09:34:27;;;;;;;60.75;27.15;;;;;;;1.86;100.00;100775.87;1702537;84;20924;-44
2021/11/19 09:36:53;;;;;;;57.58;26.40;;;;;;;1.82;100.00;100761.32;1676177;84;21521;-44
2021/11/19 09:39:26;;;;;;;75.72;27.95;;;;;;;1.86;100.00;100755.84;1721082;83;20955;-43
2021/11/19 09:42:20;;;;;;;62.78;27.42;;;;;;;1.88;100.00;100753.34;1720600;83;20986;-44
2021/11/19 09:45:20;;;;;;;58.10;26.60;;;;;;;1.89;100.00;100753.79;1686732;85;21902;-44
2021/11/19 09:48:13;;;;;;;79.17;26.23;;;;;;;1.93;100.00;100750.07;1686216;85;21010;-43
2021/11/19 09:51:06;;;;;;;62.40;26.15;;;;;;;1.99;100.00;100742.53;1702595;84;21003;-44
2021/11/19 09:54:13;;;;;;;63.30;26.73;;;;;;;2.05;100.00;100740.94;1676405;84;21126;-44
2021/11/19 09:57:29;;;;;;;74.65;29.18;;;;;;;2.10;100.00;100739.33;1720891;82;20935;-44
2021/11/19 10:00:25;;;;;;;82.40;26.42;;;;;;;2.14;100.00;100730.50;1660887;85;21056;-43
2021/11/19 10:03:49;;;;;;;79.72;27.70;;;;;;;2.18;100.00;100719.94;1702608;84;21241;-43
2021/11/19 10:07:04;;;;;;;67.37;28.95;;;;;;;2.24;100.00;100717.90;1702003;84;21612;-43
2021/11/19 10:09:45;;;;;;;51.73;24.95;;;;;;;2.27;99.69;100710.30;1702529;84;20987;-43
2021/11/19 10:12:19;;;;;;;59.30;26.07;;;;;;;2.24;99.58;100705.13;1721191;83;20951;-43
2021/11/19 10:15:12;;;;;;;58.78;27.50;;;;;;;2.28;99.52;100698.84;1694168;83;21111;-43
2021/11/19 10:18:00;;;;;;;55.70;24.77;;;;;;;2.34;99.26;100701.94;1686521;84;21017;-43
2021/11/19 10:20:46;;;;;;;56.40;25.88;;;;;;;2.41;98.97;100692.70;1702628;84;21625;-43
2021/11/19 10:23:23;;;;;;;60.25;26.85;;;;;;;2.52;98.98;100684.81;1678335;84;21006;-43
2021/11/19 10:26:22;;;;;;;60.60;25.10;;;;;;;2.61;98.59;100676.85;1702639;83;21038;-43
2021/11/19 10:29:11;;;;;;;59.48;26.20;;;;;;;2.68;97.76;100670.60;1669574;84;21275;-43
2021/11/19 10:31:38;;;;;;;60.08;26.17;;;;;;;2.73;97.21;100674.53;1705787;83;21572;-43
2021/11/19 10:34:33;;;;;;;54.85;26.82;;;;;;;2.71;96.77;100669.38;1686628;83;21512;-43
2021/11/19 10:37:28;;;;;;;62.65;27.27;;;;;;;2.73;96.46;100661.75;1686626;85;21005;-43
2021/11/19 10:40:32;;;;;;;58.98;27.90;;;;;;;2.75;96.33;100663.91;1665709;85;20971;-43
2021/11/19 10:43:34;;;;;;;70.92;27.25;;;;;;;2.76;95.93;100668.19;1734320;81;21131;-43
2021/11/19 10:46:15;;;;;;;77.37;29.57;;;;;;;2.76;95.91;100666.91;1734813;82;21011;-43
2021/11/19 10:48:53;;;;;;;72.37;27.87;;;;;;;2.73;96.01;100668.13;1735473;82;20886;-44
2021/11/19 10:51:34;;;;;;;58.75;27.27;;;;;;;2.74;96.12;100668.58;1713383;82;21004;-43
2021/11/19 10:54:41;;;;;;;60.10;27.42;;;;;;;2.73;96.11;100665.14;1713377;82;21083;-43
2021/11/19 10:57:48;;;;;;;62.80;27.93;;;;;;;2.72;95.80;100650.64;1735260;82;21031;-43
2021/11/19 11:00:28;;;;;;;57.85;28.20;;;;;;;2.67;96.01;100652.27;1734328;82;20944;-43
2021/11/19 11:02:57;;;;;;;61.13;28.47;;;;;;;2.66;96.05;100640.75;1734806;82;21509;-43
2021/11/19 11:05:33;;;;;;;60.28;28.12;;;;;;;2.66;96.17;100629.25;1714171;82;20949;-43
2021/11/19 11:08:20;;;;;;;54.73;25.40;;;;;;;2.64;96.37;100616.43;1734459;82;21471;-44
2021/11/19 11:11:03;;;;;;;53.75;26.02;;;;;;;2.66;96.42;100610.92;1735203;82;21156;-43
2021/11/19 11:13:45;;;;;;;54.73;25.92;;;;;;;2.70;96.40;100613.97;1735041;82;20928;-43
2021/11/19 11:16:24;;;;;;;58.35;26.68;;;;;;;2.72;96.31;100612.73;1733434;82;21019;-43
2021/11/19 11:18:58;;;;;;;57.15;27.15;;;;;;;2.68;96.25;100614.80;1714157;82;21553;-43
2021/11/19 11:21:56;;;;;;;63.42;28.25;;;;;;;2.68;96.37;100604.57;1735261;82;20936;-43
2021/11/19 11:24:34;;;;;;;72.85;28.20;;;;;;;2.66;96.13;100586.64;1735306;82;21162;-44
2021/11/19 11:27:31;;;;;;;56.42;25.90;;;;;;;2.66;96.13;100586.64;1714095;82;21019;-43
2021/11/19 11:30:11;;;;;;;51.02;24.90;;;;;;;2.69;96.39;100589.23;1735350;82;20961;-43
2021/11/19 11:33:00;;;;;;;47.90;24.60;;;;;;;2.69;96.48;100582.00;1735096;81;20968;-43
2021/11/19 11:35:38;;;;;;;46.75;24.85;;;;;;;2.74;96.21;100582.93;1734850;82;20964;-43
2021/11/19 11:38:41;;;;;;;51.37;25.62;;;;;;;2.69;95.93;100580.73;1734552;82;21251;-44
2021/11/19 11:41:19;;;;;;;63.00;25.92;;;;;;;2.72;95.96;100572.66;1733989;82;21201;-44